createdAt,value
2022-12-31T00:01:31.159Z,100237.75
2022-12-31T00:03:58.591Z,100241.31
2022-12-31T00:06:35.130Z,100245.72
2022-12-31T00:09:04.369Z,100241.53
2022-12-31T00:11:31.533Z,100250.19
2022-12-31T00:13:58.548Z,100249.41
2022-12-31T00:16:31.533Z,100246.78
2022-12-31T00:18:59.613Z,100251.00
2022-12-31T00:21:28.421Z,100251.25
2022-12-31T00:23:55.226Z,100245.72
2022-12-31T00:26:25.022Z,100260.47
2022-12-31T00:28:53.082Z,100248.13
2022-12-31T00:31:22.513Z,100248.13
2022-12-31T00:33:49.302Z,100242.88
2022-12-31T00:36:18.463Z,100247.13
2022-12-31T00:38:47.844Z,100252.97
2022-12-31T00:41:15.965Z,100254.44
2022-12-31T00:43:42.725Z,100254.75
2022-12-31T00:46:10.498Z,100251.56
2022-12-31T00:48:37.104Z,100266.91
2022-12-31T00:51:06.063Z,100267.69
2022-12-31T00:53:32.618Z,100273.50
2022-12-31T00:56:01.302Z,100278.75
2022-12-31T00:58:28.528Z,100279.44
2022-12-31T01:00:55.027Z,100278.75
2022-12-31T01:03:21.812Z,100280.38
2022-12-31T01:05:48.793Z,100275.13
2022-12-31T01:08:15.212Z,100269.72
2022-12-31T01:10:41.543Z,100274.31
2022-12-31T01:13:08.433Z,100269.72
2022-12-31T01:15:36.339Z,100280.81
2022-12-31T01:18:04.328Z,100273.97
2022-12-31T01:20:31.188Z,100291.31
2022-12-31T01:22:58.456Z,100276.22
2022-12-31T01:25:24.823Z,100272.81
2022-12-31T01:27:51.213Z,100279.06
2022-12-31T01:30:17.571Z,100276.44
2022-12-31T01:32:43.925Z,100280.69
2022-12-31T01:35:10.241Z,100284.31
2022-12-31T01:37:36.761Z,100277.59
2022-12-31T01:40:03.541Z,100281.00
2022-12-31T01:42:29.942Z,100286.50
2022-12-31T01:44:56.662Z,100286.25
2022-12-31T01:47:37.718Z,100280.22
2022-12-31T01:50:18.448Z,100282.03
2022-12-31T01:52:49.843Z,100284.31
2022-12-31T01:55:28.281Z,100276.91
2022-12-31T01:57:59.497Z,100286.38
2022-12-31T02:00:26.159Z,100273.94
2022-12-31T02:02:52.912Z,100277.91
2022-12-31T02:05:40.856Z,100272.78
2022-12-31T02:08:07.964Z,100282.59
2022-12-31T02:10:34.700Z,100280.88
2022-12-31T02:13:01.864Z,100281.44
2022-12-31T02:15:45.438Z,100285.56
2022-12-31T02:18:32.853Z,100290.38
2022-12-31T02:21:23.527Z,100291.81
2022-12-31T02:24:11.540Z,100287.03
2022-12-31T02:27:15.740Z,100298.31
2022-12-31T02:30:21.841Z,100286.91
2022-12-31T02:33:03.028Z,100289.75
2022-12-31T02:35:36.898Z,100278.56
2022-12-31T02:38:09.054Z,100280.75
2022-12-31T02:40:38.013Z,100271.13
2022-12-31T02:43:05.047Z,100273.31
2022-12-31T02:45:41.868Z,100258.59
2022-12-31T02:48:14.250Z,100247.28
2022-12-31T02:51:14.143Z,100241.69
2022-12-31T02:53:55.619Z,100230.06
2022-12-31T02:56:36.204Z,100246.16
2022-12-31T02:59:20.206Z,100246.84
2022-12-31T03:01:53.716Z,100242.38
2022-12-31T03:04:22.511Z,100245.56
2022-12-31T03:06:49.742Z,100261.09
2022-12-31T03:09:16.315Z,100269.75
2022-12-31T03:11:43.230Z,100244.66
2022-12-31T03:14:09.744Z,100273.63
2022-12-31T03:16:36.386Z,100280.03
2022-12-31T03:19:03.039Z,100278.00
2022-12-31T03:21:29.379Z,100279.81
2022-12-31T03:23:55.746Z,100289.28
2022-12-31T03:26:22.161Z,100297.38
2022-12-31T03:28:48.496Z,100302.84
2022-12-31T03:31:14.962Z,100306.28
2022-12-31T03:33:42.173Z,100295.06
2022-12-31T03:36:12.225Z,100299.88
2022-12-31T03:38:39.032Z,100294.63
2022-12-31T03:41:05.715Z,100295.31
2022-12-31T03:43:32.351Z,100290.38
2022-12-31T03:46:00.086Z,100294.94
2022-12-31T03:48:26.483Z,100298.50
2022-12-31T03:50:52.930Z,100295.97
2022-12-31T03:53:19.823Z,100301.34
2022-12-31T03:55:50.949Z,100310.47
2022-12-31T03:58:17.342Z,100311.94
2022-12-31T04:00:43.772Z,100301.09
2022-12-31T04:03:10.118Z,100303.56
2022-12-31T04:05:36.492Z,100301.31
2022-12-31T04:08:03.102Z,100295.84
2022-12-31T04:10:29.532Z,100289.19
2022-12-31T04:12:55.867Z,100274.72
2022-12-31T04:15:22.440Z,100272.31
2022-12-31T04:17:48.918Z,100278.94
2022-12-31T04:20:16.537Z,100280.53
2022-12-31T04:22:43.103Z,100251.97
2022-12-31T04:25:09.541Z,100278.59
2022-12-31T04:27:35.857Z,100273.44
2022-12-31T04:30:02.203Z,100279.03
2022-12-31T04:32:28.579Z,100282.31
2022-12-31T04:34:55.016Z,100279.22
2022-12-31T04:37:21.721Z,100258.38
2022-12-31T04:39:48.106Z,100262.03
2022-12-31T04:42:14.471Z,100266.31
2022-12-31T04:44:40.834Z,100266.31
2022-12-31T04:47:07.241Z,100251.50
2022-12-31T04:49:33.628Z,100256.41
2022-12-31T04:51:59.967Z,100256.06
2022-12-31T04:54:26.342Z,100268.72
2022-12-31T04:56:52.801Z,100274.19
2022-12-31T04:59:19.178Z,100252.94
2022-12-31T05:01:45.616Z,100271.41
2022-12-31T05:04:12.094Z,100268.94
2022-12-31T05:06:38.512Z,100275.09
2022-12-31T05:09:04.888Z,100274.97
2022-12-31T05:11:31.352Z,100260.16
2022-12-31T05:13:57.748Z,100265.16
2022-12-31T05:16:24.228Z,100267.34
2022-12-31T05:18:50.627Z,100281.03
2022-12-31T05:21:20.974Z,100289.13
2022-12-31T05:23:48.131Z,100271.56
2022-12-31T05:26:14.575Z,100283.06
2022-12-31T05:28:41.150Z,100274.63
2022-12-31T05:31:07.629Z,100277.50
2022-12-31T05:33:34.050Z,100285.56
2022-12-31T05:36:00.495Z,100284.78
2022-12-31T05:38:26.848Z,100286.22
2022-12-31T05:41:01.190Z,100274.72
2022-12-31T05:43:27.686Z,100296.06
2022-12-31T05:45:54.084Z,100288.19
2022-12-31T05:48:20.463Z,100287.16
2022-12-31T05:50:46.825Z,100284.91
2022-12-31T05:53:13.192Z,100273.16
2022-12-31T05:55:39.710Z,100274.63
2022-12-31T05:58:06.323Z,100304.03
2022-12-31T06:00:32.713Z,100292.97
2022-12-31T06:02:59.166Z,100292.75
2022-12-31T06:05:26.532Z,100277.13
2022-12-31T06:07:53.201Z,100299.63
2022-12-31T06:10:19.547Z,100287.09
2022-12-31T06:12:46.103Z,100282.19
2022-12-31T06:15:12.441Z,100292.91
2022-12-31T06:17:38.841Z,100286.09
2022-12-31T06:20:12.252Z,100286.56
2022-12-31T06:22:39.377Z,100281.22
2022-12-31T06:25:06.392Z,100281.56
2022-12-31T06:27:32.797Z,100277.47
2022-12-31T06:29:59.109Z,100291.06
2022-12-31T06:32:25.468Z,100279.56
2022-12-31T06:34:51.804Z,100285.72
2022-12-31T06:37:18.145Z,100287.75
2022-12-31T06:39:44.539Z,100290.97
2022-12-31T06:42:10.919Z,100283.66
2022-12-31T06:44:37.295Z,100285.97
2022-12-31T06:47:03.644Z,100300.59
2022-12-31T06:49:30.048Z,100297.50
2022-12-31T06:51:56.586Z,100306.97
2022-12-31T06:54:23.001Z,100304.56
2022-12-31T06:56:49.645Z,100299.69
2022-12-31T06:59:28.514Z,100292.47
2022-12-31T07:02:07.839Z,100306.97
2022-12-31T07:04:49.144Z,100310.88
2022-12-31T07:07:29.234Z,100302.00
2022-12-31T07:10:12.921Z,100309.97
2022-12-31T07:12:47.217Z,100298.69
2022-12-31T07:15:40.967Z,100311.47
2022-12-31T07:18:29.251Z,100308.16
2022-12-31T07:20:55.878Z,100306.69
2022-12-31T07:23:22.526Z,100315.69
2022-12-31T07:26:03.556Z,100308.19
2022-12-31T07:28:49.923Z,100293.00
2022-12-31T07:31:34.560Z,100283.00
2022-12-31T07:34:41.220Z,100290.53
2022-12-31T07:37:18.822Z,100285.38
2022-12-31T07:40:17.584Z,100289.97
2022-12-31T07:43:02.205Z,100286.41
2022-12-31T07:45:46.234Z,100290.41
2022-12-31T07:51:05.044Z,100290.06
2022-12-31T07:53:31.630Z,100297.72
2022-12-31T07:56:02.546Z,100303.31
2022-12-31T07:58:38.036Z,100316.53
2022-12-31T08:01:05.528Z,100331.28
2022-12-31T08:03:38.049Z,100305.00
2022-12-31T08:06:19.653Z,100326.13
2022-12-31T08:09:11.977Z,100328.88
2022-12-31T08:11:54.362Z,100331.16
2022-12-31T08:14:21.520Z,100334.22
2022-12-31T08:16:48.705Z,100339.03
2022-12-31T08:19:29.954Z,100341.09
2022-12-31T08:22:24.847Z,100353.66
2022-12-31T08:25:16.337Z,100353.97
2022-12-31T08:28:22.536Z,100350.09
2022-12-31T08:31:05.469Z,100348.81
2022-12-31T08:33:37.928Z,100347.25
2022-12-31T08:36:20.612Z,100346.53
2022-12-31T08:38:49.703Z,100355.56
2022-12-31T08:41:29.784Z,100355.91
2022-12-31T08:43:59.195Z,100346.88
2022-12-31T08:46:31.317Z,100354.63
2022-12-31T08:48:57.831Z,100362.28
2022-12-31T08:51:26.467Z,100372.81
2022-12-31T08:53:53.540Z,100361.25
2022-12-31T08:56:32.755Z,100367.28
2022-12-31T08:59:04.812Z,100366.41
2022-12-31T09:01:45.072Z,100384.56
2022-12-31T09:04:33.483Z,100395.34
2022-12-31T09:07:03.446Z,100406.75
2022-12-31T09:10:03.080Z,100410.66
2022-12-31T09:12:52.369Z,100414.88
2022-12-31T09:15:42.143Z,100419.00
2022-12-31T09:18:11.711Z,100429.06
2022-12-31T09:20:43.729Z,100438.00
2022-12-31T09:23:12.572Z,100436.16
2022-12-31T09:25:46.009Z,100432.16
2022-12-31T09:28:38.395Z,100449.53
2022-12-31T09:31:37.363Z,100431.69
2022-12-31T09:34:23.695Z,100436.84
2022-12-31T09:36:56.157Z,100438.44
2022-12-31T09:39:47.568Z,100456.16
2022-12-31T09:42:54.325Z,100441.63
2022-12-31T09:45:51.049Z,100447.81
2022-12-31T09:48:46.324Z,100438.78
2022-12-31T09:51:30.980Z,100457.84
2022-12-31T09:54:25.431Z,100443.44
2022-12-31T09:57:20.775Z,100443.41
2022-12-31T10:00:02.263Z,100452.56
2022-12-31T10:03:04.754Z,100462.63
2022-12-31T10:05:43.381Z,100455.66
2022-12-31T10:08:32.246Z,100462.25
2022-12-31T10:11:05.828Z,100463.47
2022-12-31T10:13:38.110Z,100475.41
2022-12-31T10:16:24.654Z,100483.47
2022-12-31T10:19:00.684Z,100469.59
2022-12-31T10:21:26.934Z,100473.38
2022-12-31T10:24:18.177Z,100462.59
2022-12-31T10:26:56.114Z,100443.94
2022-12-31T10:29:45.326Z,100440.81
2022-12-31T10:32:14.674Z,100439.78
2022-12-31T10:35:24.938Z,100450.41
2022-12-31T10:38:11.597Z,100446.19
2022-12-31T10:41:15.584Z,100455.44
2022-12-31T10:44:17.187Z,100440.91
2022-12-31T10:47:14.860Z,100456.56
2022-12-31T10:50:13.756Z,100447.38
2022-12-31T10:53:01.843Z,100463.06
2022-12-31T10:55:37.342Z,100470.47
2022-12-31T10:58:41.421Z,100458.91
2022-12-31T11:01:26.703Z,100457.56
2022-12-31T11:04:24.616Z,100465.63
2022-12-31T11:06:53.927Z,100463.78
2022-12-31T11:09:44.639Z,100462.97
2022-12-31T11:12:42.556Z,100459.84
2022-12-31T11:15:21.338Z,100442.94
2022-12-31T11:18:13.690Z,100438.88
2022-12-31T11:21:01.894Z,100432.00
2022-12-31T11:24:05.427Z,100451.00
2022-12-31T11:26:58.911Z,100450.75
2022-12-31T11:29:39.587Z,100443.59
2022-12-31T11:32:05.973Z,100467.38
2022-12-31T11:34:38.459Z,100461.63
2022-12-31T11:37:36.821Z,100457.94
2022-12-31T11:40:12.273Z,100460.34
2022-12-31T11:43:11.019Z,100461.22
2022-12-31T11:46:00.719Z,100440.47
2022-12-31T11:49:04.830Z,100449.06
2022-12-31T11:51:50.041Z,100459.06
2022-12-31T11:54:55.757Z,100464.03
2022-12-31T11:57:27.435Z,100459.78
2022-12-31T11:59:58.785Z,100436.13
2022-12-31T12:02:34.137Z,100444.16
2022-12-31T12:05:10.327Z,100442.06
2022-12-31T12:07:37.361Z,100455.31
2022-12-31T12:10:36.021Z,100464.44
2022-12-31T12:13:22.855Z,100458.09
2022-12-31T12:16:03.540Z,100459.72
2022-12-31T12:18:46.592Z,100452.34
2022-12-31T12:21:22.648Z,100449.22
2022-12-31T12:24:04.567Z,100455.09
2022-12-31T12:26:39.705Z,100459.41
2022-12-31T12:29:22.338Z,100462.50
2022-12-31T12:31:59.331Z,100465.94
2022-12-31T12:34:35.246Z,100452.69
2022-12-31T12:37:01.899Z,100440.75
2022-12-31T12:39:31.939Z,100463.78
2022-12-31T12:42:07.144Z,100459.78
2022-12-31T12:44:34.052Z,100456.66
2022-12-31T12:47:03.096Z,100466.66
2022-12-31T12:49:32.707Z,100466.66
2022-12-31T12:52:33.002Z,100476.88
2022-12-31T12:55:30.740Z,100466.09
2022-12-31T12:58:19.408Z,100464.97
2022-12-31T13:01:24.775Z,100444.44
2022-12-31T13:04:37.924Z,100453.66
2022-12-31T13:07:15.737Z,100445.88
2022-12-31T13:09:58.931Z,100454.34
2022-12-31T13:13:32.678Z,100458.38
2022-12-31T13:16:03.362Z,100441.50
2022-12-31T13:18:47.373Z,100469.75
2022-12-31T13:21:30.564Z,100451.84
2022-12-31T13:23:59.982Z,100447.41
2022-12-31T13:26:29.354Z,100464.91
2022-12-31T13:28:56.862Z,100478.81
2022-12-31T13:31:37.923Z,100484.56
2022-12-31T13:34:19.038Z,100485.34
2022-12-31T13:36:49.162Z,100481.34
2022-12-31T13:39:20.711Z,100485.84
2022-12-31T13:41:55.196Z,100492.94
2022-12-31T13:44:35.177Z,100482.31
2022-12-31T13:47:20.400Z,100478.88
2022-12-31T13:49:54.816Z,100498.69
2022-12-31T13:52:44.092Z,100497.47
2022-12-31T13:55:33.681Z,100501.00
2022-12-31T13:58:22.137Z,100495.00
2022-12-31T14:01:34.223Z,100492.59
2022-12-31T14:04:03.619Z,100495.56
2022-12-31T14:06:42.512Z,100496.75
2022-12-31T14:09:18.057Z,100500.44
2022-12-31T14:11:59.820Z,100510.41
2022-12-31T14:14:55.457Z,100514.06
2022-12-31T14:17:38.771Z,100500.84
2022-12-31T14:20:26.505Z,100512.94
2022-12-31T14:23:17.534Z,100503.47
2022-12-31T14:25:57.641Z,100495.78
2022-12-31T14:28:30.327Z,100503.47
2022-12-31T14:31:05.030Z,100504.81
2022-12-31T14:33:44.203Z,100487.09
2022-12-31T14:36:23.941Z,100497.94
2022-12-31T14:39:17.902Z,100484.75
2022-12-31T14:42:12.872Z,100498.25
2022-12-31T14:45:03.668Z,100494.13
2022-12-31T14:47:40.827Z,100503.75
2022-12-31T14:50:15.329Z,100511.44
2022-12-31T14:52:56.428Z,100503.88
2022-12-31T14:55:35.476Z,100522.09
2022-12-31T14:58:28.606Z,100536.28
2022-12-31T15:00:58.984Z,100524.06
2022-12-31T15:03:31.643Z,100540.59
2022-12-31T15:06:10.343Z,100551.25
2022-12-31T15:08:46.694Z,100541.56
2022-12-31T15:11:37.582Z,100537.00
2022-12-31T15:14:37.594Z,100555.44
2022-12-31T15:17:16.113Z,100553.72
2022-12-31T15:20:17.545Z,100552.94
2022-12-31T15:22:49.429Z,100544.00
2022-12-31T15:25:33.913Z,100553.41
2022-12-31T15:28:26.414Z,100559.34
2022-12-31T15:30:57.546Z,100551.66
2022-12-31T15:33:57.997Z,100560.16
2022-12-31T15:36:35.525Z,100552.47
2022-12-31T15:39:10.001Z,100556.25
2022-12-31T15:41:46.135Z,100559.44
2022-12-31T15:44:45.030Z,100551.53
2022-12-31T15:47:36.560Z,100555.75
2022-12-31T15:50:14.843Z,100557.94
2022-12-31T15:52:53.665Z,100556.66
2022-12-31T15:55:26.261Z,100540.53
2022-12-31T15:57:56.795Z,100539.34
2022-12-31T16:00:23.953Z,100539.13
2022-12-31T16:02:53.123Z,100541.94
2022-12-31T16:05:22.569Z,100543.56
2022-12-31T16:07:52.773Z,100539.88
2022-12-31T16:10:25.205Z,100522.94
2022-12-31T16:12:53.608Z,100540.16
2022-12-31T16:15:27.097Z,100543.81
2022-12-31T16:18:10.573Z,100531.34
2022-12-31T16:20:42.784Z,100535.00
2022-12-31T16:23:23.909Z,100531.56
2022-12-31T16:25:53.239Z,100523.66
2022-12-31T16:28:21.990Z,100520.41
2022-12-31T16:31:00.182Z,100539.34
2022-12-31T16:33:26.686Z,100520.97
2022-12-31T16:35:57.715Z,100530.00
2022-12-31T16:38:32.244Z,100540.31
2022-12-31T16:41:01.521Z,100519.22
2022-12-31T16:43:39.522Z,100519.47
2022-12-31T16:46:44.481Z,100510.53
2022-12-31T16:49:20.243Z,100512.38
2022-12-31T16:51:47.349Z,100524.19
2022-12-31T16:54:25.826Z,100514.44
2022-12-31T16:56:52.529Z,100526.34
2022-12-31T16:59:40.800Z,100521.78
2022-12-31T17:02:18.702Z,100508.28
2022-12-31T17:04:55.417Z,100514.75
2022-12-31T17:07:27.113Z,100520.03
2022-12-31T17:10:08.903Z,100508.44
2022-12-31T17:13:25.506Z,100516.03
2022-12-31T17:15:41.073Z,100508.38
2022-12-31T17:18:11.397Z,100526.09
2022-12-31T17:20:37.935Z,100498.19
2022-12-31T17:23:07.514Z,100504.13
2022-12-31T17:25:37.821Z,100505.47
2022-12-31T17:28:07.910Z,100495.25
2022-12-31T17:30:35.950Z,100503.16
2022-12-31T17:33:03.515Z,100508.78
2022-12-31T17:35:35.928Z,100494.13
2022-12-31T17:38:22.733Z,100494.78
2022-12-31T17:40:59.997Z,100500.38
2022-12-31T17:43:31.512Z,100490.22
2022-12-31T17:46:02.737Z,100516.03
2022-12-31T17:48:29.566Z,100499.09
2022-12-31T17:50:58.909Z,100512.50
2022-12-31T17:53:26.051Z,100496.06
2022-12-31T17:55:56.351Z,100495.88
2022-12-31T17:58:29.913Z,100496.38
2022-12-31T18:00:57.565Z,100509.88
2022-12-31T18:03:24.191Z,100510.91
2022-12-31T18:05:50.685Z,100504.28
2022-12-31T18:08:17.164Z,100504.53
2022-12-31T18:10:44.387Z,100518.81
2022-12-31T18:13:15.872Z,100524.50
2022-12-31T18:15:42.235Z,100518.44
2022-12-31T18:18:20.932Z,100512.81
2022-12-31T18:20:53.910Z,100514.22
2022-12-31T18:23:23.967Z,100511.94
2022-12-31T18:25:50.483Z,100517.78
2022-12-31T18:28:16.910Z,100508.59
2022-12-31T18:30:44.355Z,100511.06
2022-12-31T18:33:12.740Z,100502.22
2022-12-31T18:36:07.652Z,100506.16
2022-12-31T18:38:26.331Z,100502.56
2022-12-31T18:40:57.275Z,100493.91
2022-12-31T18:43:24.000Z,100487.75
2022-12-31T18:45:51.767Z,100484.75
2022-12-31T18:48:18.495Z,100504.13
2022-12-31T18:50:45.729Z,100502.56
2022-12-31T18:53:23.499Z,100519.53
2022-12-31T18:55:51.616Z,100518.44
2022-12-31T18:58:18.553Z,100508.38
2022-12-31T19:00:45.666Z,100513.00
2022-12-31T19:03:30.664Z,100503.81
2022-12-31T19:05:57.086Z,100516.19
2022-12-31T19:08:24.168Z,100510.16
2022-12-31T19:10:52.151Z,100513.72
2022-12-31T19:13:19.704Z,100517.69
2022-12-31T19:15:49.704Z,100520.03
2022-12-31T19:18:16.357Z,100524.09
2022-12-31T19:20:43.102Z,100522.34
2022-12-31T19:23:18.523Z,100519.94
2022-12-31T19:25:46.084Z,100528.97
2022-12-31T19:28:17.233Z,100532.16
2022-12-31T19:30:44.107Z,100526.91
2022-12-31T19:33:10.897Z,100537.38
2022-12-31T19:35:37.993Z,100535.16
2022-12-31T19:38:11.782Z,100533.00
2022-12-31T19:40:40.140Z,100534.59
2022-12-31T19:43:12.507Z,100546.59
2022-12-31T19:45:41.023Z,100541.00
2022-12-31T19:48:11.309Z,100537.81
2022-12-31T19:50:40.267Z,100523.94
2022-12-31T19:53:06.737Z,100514.00
2022-12-31T19:55:33.244Z,100515.41
2022-12-31T19:57:59.630Z,100519.69
2022-12-31T20:00:26.134Z,100531.06
2022-12-31T20:02:52.856Z,100519.84
2022-12-31T20:05:19.395Z,100518.41
2022-12-31T20:07:45.873Z,100524.78
2022-12-31T20:10:12.340Z,100528.81
2022-12-31T20:12:44.129Z,100514.19
2022-12-31T20:15:11.228Z,100528.38
2022-12-31T20:17:37.989Z,100527.59
2022-12-31T20:20:05.833Z,100539.47
2022-12-31T20:22:32.425Z,100545.13
2022-12-31T20:24:59.019Z,100552.72
2022-12-31T20:27:25.636Z,100546.31
2022-12-31T20:29:52.056Z,100550.78
2022-12-31T20:32:18.542Z,100553.66
2022-12-31T20:34:45.147Z,100551.16
2022-12-31T20:37:11.724Z,100547.19
2022-12-31T20:39:38.103Z,100573.94
2022-12-31T20:42:04.627Z,100564.56
2022-12-31T20:44:30.979Z,100570.84
2022-12-31T20:46:57.403Z,100568.78
2022-12-31T20:49:52.082Z,100568.06
2022-12-31T20:52:10.711Z,100548.25
2022-12-31T20:54:37.027Z,100558.53
2022-12-31T20:57:03.464Z,100550.50
2022-12-31T20:59:29.862Z,100555.69
2022-12-31T21:02:20.532Z,100561.88
2022-12-31T21:04:42.825Z,100557.53
2022-12-31T21:07:09.287Z,100568.84
2022-12-31T21:09:35.651Z,100556.41
2022-12-31T21:12:02.196Z,100561.88
2022-12-31T21:14:28.599Z,100552.41
2022-12-31T21:16:55.171Z,100568.50
2022-12-31T21:19:21.557Z,100564.88
2022-12-31T21:21:47.932Z,100576.75
2022-12-31T21:24:18.836Z,100580.44
2022-12-31T21:26:48.468Z,100559.81
2022-12-31T21:29:14.908Z,100583.53
2022-12-31T21:31:41.358Z,100584.09
2022-12-31T21:34:09.495Z,100584.66
2022-12-31T21:36:35.933Z,100585.38
2022-12-31T21:39:02.388Z,100598.41
2022-12-31T21:41:33.280Z,100586.28
2022-12-31T21:44:00.482Z,100599.63
2022-12-31T21:46:26.860Z,100604.34
2022-12-31T21:49:00.379Z,100603.28
2022-12-31T21:51:27.534Z,100617.16
2022-12-31T21:53:54.086Z,100628.34
2022-12-31T21:56:21.115Z,100613.78
2022-12-31T21:58:53.770Z,100605.25
2022-12-31T22:01:21.847Z,100623.81
2022-12-31T22:03:48.415Z,100622.84
2022-12-31T22:06:18.884Z,100613.56
2022-12-31T22:08:46.874Z,100615.88
2022-12-31T22:11:14.394Z,100612.31
2022-12-31T22:13:41.261Z,100622.53
2022-12-31T22:16:08.324Z,100587.75
2022-12-31T22:18:37.102Z,100618.91
2022-12-31T22:21:17.430Z,100630.69
2022-12-31T22:23:46.156Z,100626.69
2022-12-31T22:26:14.568Z,100633.66
2022-12-31T22:28:42.490Z,100642.94
2022-12-31T22:31:22.320Z,100646.38
2022-12-31T22:33:48.982Z,100636.75
2022-12-31T22:36:17.978Z,100638.47
2022-12-31T22:38:45.260Z,100638.09
2022-12-31T22:41:21.951Z,100641.09
2022-12-31T22:43:50.685Z,100644.66
2022-12-31T22:46:22.984Z,100646.25
2022-12-31T22:48:50.790Z,100645.66
2022-12-31T22:51:17.595Z,100645.81
2022-12-31T22:53:44.475Z,100627.72
2022-12-31T22:56:13.266Z,100643.53
2022-12-31T22:58:39.677Z,100649.38
2022-12-31T23:01:08.373Z,100649.59
2022-12-31T23:03:35.031Z,100660.00
2022-12-31T23:06:01.472Z,100652.56
2022-12-31T23:08:27.822Z,100665.81
2022-12-31T23:10:54.278Z,100661.81
2022-12-31T23:13:21.316Z,100656.56
2022-12-31T23:15:47.710Z,100672.94
2022-12-31T23:18:14.101Z,100671.56
2022-12-31T23:20:40.829Z,100676.84
2022-12-31T23:23:08.794Z,100672.94
2022-12-31T23:25:51.702Z,100686.44
2022-12-31T23:28:20.947Z,100683.81
2022-12-31T23:30:47.428Z,100664.47
2022-12-31T23:33:16.889Z,100674.22
2022-12-31T23:35:43.720Z,100680.38
2022-12-31T23:38:10.392Z,100696.06
2022-12-31T23:40:36.806Z,100671.44
2022-12-31T23:43:05.899Z,100692.84
2022-12-31T23:45:33.619Z,100684.94
2022-12-31T23:48:00.598Z,100693.41
2022-12-31T23:50:27.188Z,100693.97
2022-12-31T23:52:54.008Z,100681.59
2022-12-31T23:55:20.996Z,100682.38
2022-12-31T23:57:47.498Z,100685.38
